createdAt,value
2022-12-15T00:00:43.689Z,3.13
2022-12-15T00:03:31.661Z,3.60
2022-12-15T00:06:19.546Z,3.87
2022-12-15T00:09:09.797Z,3.70
2022-12-15T00:12:00.091Z,3.47
2022-12-15T00:14:46.812Z,3.00
2022-12-15T00:17:33.682Z,3.83
2022-12-15T00:20:20.471Z,3.17
2022-12-15T00:23:07.047Z,3.67
2022-12-15T00:25:53.624Z,3.67
2022-12-15T00:28:42.405Z,3.60
2022-12-15T00:31:30.197Z,3.50
2022-12-15T00:34:17.050Z,4.37
2022-12-15T00:37:03.753Z,3.17
2022-12-15T00:39:32.101Z,2.83
2022-12-15T00:42:00.471Z,3.47
2022-12-15T00:44:30.037Z,3.27
2022-12-15T00:46:58.495Z,2.40
2022-12-15T00:49:46.642Z,3.93
2022-12-15T00:52:33.761Z,2.73
2022-12-15T00:55:21.239Z,3.30
2022-12-15T00:58:09.148Z,2.90
2022-12-15T01:00:55.725Z,2.00
2022-12-15T01:03:43.289Z,1.83
2022-12-15T01:06:32.282Z,1.10
2022-12-15T01:09:19.540Z,2.60
2022-12-15T01:12:06.147Z,2.70
2022-12-15T01:14:54.192Z,1.57
2022-12-15T01:17:42.266Z,1.63
2022-12-15T01:20:23.112Z,1.10
2022-12-15T01:22:53.807Z,1.40
2022-12-15T01:25:25.066Z,1.83
2022-12-15T01:27:53.598Z,1.23
2022-12-15T01:30:26.887Z,1.47
2022-12-15T01:32:55.390Z,1.23
2022-12-15T01:35:24.652Z,1.93
2022-12-15T01:37:53.220Z,3.40
2022-12-15T01:40:40.503Z,2.17
2022-12-15T01:43:18.788Z,1.83
2022-12-15T01:46:08.194Z,2.53
2022-12-15T01:48:47.455Z,2.77
2022-12-15T01:51:27.827Z,2.93
2022-12-15T01:54:08.096Z,1.43
2022-12-15T01:56:46.793Z,2.33
2022-12-15T01:59:19.981Z,2.00
2022-12-15T02:01:50.042Z,2.23
2022-12-15T02:04:20.007Z,2.10
2022-12-15T02:06:48.439Z,2.63
2022-12-15T02:09:17.821Z,2.67
2022-12-15T02:12:10.548Z,2.70
2022-12-15T02:14:54.017Z,2.27
2022-12-15T02:17:43.554Z,2.60
2022-12-15T02:20:36.833Z,6.10
2022-12-15T02:23:31.811Z,3.60
2022-12-15T02:26:29.774Z,2.90
2022-12-15T02:29:13.506Z,3.23
2022-12-15T02:31:51.233Z,2.93
2022-12-15T02:34:43.361Z,11.57
2022-12-15T02:37:15.688Z,3.67
2022-12-15T02:39:44.247Z,3.30
2022-12-15T02:42:12.913Z,4.23
2022-12-15T02:44:51.947Z,3.40
2022-12-15T02:47:33.007Z,3.00
2022-12-15T02:50:04.149Z,2.30
2022-12-15T02:52:43.101Z,2.57
2022-12-15T02:55:32.652Z,3.40
2022-12-15T02:58:22.095Z,2.70
2022-12-15T03:01:19.122Z,3.67
2022-12-15T03:03:47.726Z,4.07
2022-12-15T03:06:16.853Z,3.77
2022-12-15T03:08:46.422Z,4.33
2022-12-15T03:11:14.791Z,3.20
2022-12-15T03:13:43.228Z,4.63
2022-12-15T03:16:11.610Z,3.33
2022-12-15T03:18:40.387Z,2.73
2022-12-15T03:21:09.615Z,1.93
2022-12-15T03:23:39.640Z,2.60
2022-12-15T03:26:08.937Z,3.13
2022-12-15T03:28:37.904Z,2.20
2022-12-15T03:31:06.402Z,2.53
2022-12-15T03:33:35.156Z,2.50
2022-12-15T03:36:04.853Z,1.57
2022-12-15T03:38:33.306Z,2.07
2022-12-15T03:41:01.768Z,2.30
2022-12-15T03:43:30.463Z,1.70
2022-12-15T03:45:59.286Z,1.87
2022-12-15T03:48:28.806Z,1.77
2022-12-15T03:50:57.292Z,1.80
2022-12-15T03:53:25.674Z,2.67
2022-12-15T03:55:54.079Z,2.07
2022-12-15T03:58:22.801Z,1.83
2022-12-15T04:00:52.471Z,2.17
2022-12-15T04:03:22.044Z,2.00
2022-12-15T04:05:50.649Z,1.53
2022-12-15T04:08:27.006Z,1.97
2022-12-15T04:10:55.834Z,1.77
2022-12-15T04:13:24.278Z,2.53
2022-12-15T04:15:52.699Z,2.00
2022-12-15T04:18:21.772Z,2.47
2022-12-15T04:20:50.523Z,2.63
2022-12-15T04:23:19.167Z,3.30
2022-12-15T04:26:06.162Z,3.00
2022-12-15T04:28:52.962Z,2.30
2022-12-15T04:31:42.645Z,1.80
2022-12-15T04:34:34.209Z,2.33
2022-12-15T04:37:21.676Z,3.27
2022-12-15T04:40:10.123Z,2.70
2022-12-15T04:43:02.583Z,3.90
2022-12-15T04:45:49.273Z,3.13
2022-12-15T04:48:36.058Z,3.07
2022-12-15T04:51:24.126Z,2.20
2022-12-15T04:54:11.550Z,2.83
2022-12-15T04:56:58.137Z,2.33
2022-12-15T04:59:44.884Z,3.70
2022-12-15T05:02:31.757Z,2.60
2022-12-15T05:05:18.662Z,2.73
2022-12-15T05:08:06.092Z,2.30
2022-12-15T05:10:53.025Z,4.33
2022-12-15T05:13:40.503Z,3.10
2022-12-15T05:16:27.346Z,3.13
2022-12-15T05:19:14.488Z,3.43
2022-12-15T05:22:01.295Z,3.13
2022-12-15T05:24:48.118Z,4.57
2022-12-15T05:27:35.320Z,3.97
2022-12-15T05:30:22.703Z,3.00
2022-12-15T05:32:51.106Z,3.87
2022-12-15T05:35:20.494Z,4.10
2022-12-15T05:37:48.879Z,3.60
2022-12-15T05:40:17.279Z,4.00
2022-12-15T05:42:49.927Z,3.90
2022-12-15T05:45:18.765Z,4.37
2022-12-15T05:47:52.079Z,4.33
2022-12-15T05:50:21.839Z,3.80
2022-12-15T05:52:50.224Z,3.60
2022-12-15T05:55:19.316Z,4.17
2022-12-15T05:57:54.237Z,3.37
2022-12-15T06:00:22.794Z,3.63
2022-12-15T06:02:52.063Z,3.10
2022-12-15T06:05:20.588Z,2.97
2022-12-15T06:07:49.088Z,4.10
2022-12-15T06:10:18.057Z,3.03
2022-12-15T06:12:46.512Z,3.80
2022-12-15T06:15:14.910Z,4.13
2022-12-15T06:17:44.783Z,3.50
2022-12-15T06:20:18.012Z,5.63
2022-12-15T06:22:49.951Z,7.00
2022-12-15T06:25:18.725Z,6.53
2022-12-15T06:27:47.103Z,4.57
2022-12-15T06:30:16.485Z,5.93
2022-12-15T06:32:45.015Z,8.00
2022-12-15T06:35:13.466Z,5.33
2022-12-15T06:37:41.845Z,4.13
2022-12-15T06:40:11.333Z,2.87
2022-12-15T06:42:39.747Z,2.77
2022-12-15T06:45:08.925Z,2.80
2022-12-15T06:47:38.022Z,2.47
2022-12-15T06:50:09.021Z,3.33
2022-12-15T06:52:37.347Z,3.27
2022-12-15T06:55:07.830Z,3.23
2022-12-15T06:57:36.975Z,4.77
2022-12-15T07:00:07.188Z,2.90
2022-12-15T07:02:36.428Z,3.47
2022-12-15T07:05:06.016Z,3.03
2022-12-15T07:07:34.854Z,2.97
2022-12-15T07:10:03.376Z,3.70
2022-12-15T07:12:32.363Z,3.10
2022-12-15T07:15:00.762Z,4.23
2022-12-15T07:17:29.419Z,3.63
2022-12-15T07:19:57.852Z,4.00
2022-12-15T07:22:26.328Z,5.37
2022-12-15T07:24:54.682Z,5.57
2022-12-15T07:27:23.802Z,4.23
2022-12-15T07:29:52.741Z,4.03
2022-12-15T07:32:21.234Z,4.47
2022-12-15T07:34:49.555Z,4.20
2022-12-15T07:37:18.443Z,3.20
2022-12-15T07:39:46.848Z,4.50
2022-12-15T07:42:15.317Z,16.00
2022-12-15T07:44:46.755Z,9.73
2022-12-15T07:47:18.845Z,5.50
2022-12-15T07:49:47.459Z,4.43
2022-12-15T07:52:16.065Z,3.53
2022-12-15T07:54:45.617Z,3.20
2022-12-15T07:57:14.107Z,3.67
2022-12-15T07:59:43.200Z,4.00
2022-12-15T08:02:12.362Z,3.97
2022-12-15T08:04:41.001Z,3.23
2022-12-15T08:07:10.904Z,5.03
2022-12-15T08:09:39.270Z,4.43
2022-12-15T08:12:07.903Z,4.30
2022-12-15T08:14:37.302Z,3.97
2022-12-15T08:17:07.150Z,5.20
2022-12-15T08:19:35.514Z,5.13
2022-12-15T08:22:03.961Z,7.10
2022-12-15T08:24:32.434Z,5.73
2022-12-15T08:27:00.863Z,5.23
2022-12-15T08:29:50.827Z,6.50
2022-12-15T08:32:18.438Z,6.90
2022-12-15T08:34:48.239Z,6.03
2022-12-15T08:37:16.624Z,5.30
2022-12-15T08:39:45.130Z,5.67
2022-12-15T08:42:13.535Z,5.73
2022-12-15T08:44:42.051Z,7.13
2022-12-15T08:47:10.496Z,6.20
2022-12-15T08:49:38.957Z,8.30
2022-12-15T08:52:07.344Z,7.97
2022-12-15T08:54:35.831Z,7.60
2022-12-15T08:57:04.513Z,9.03
2022-12-15T08:59:32.901Z,8.03
2022-12-15T09:02:01.584Z,7.73
2022-12-15T09:04:30.222Z,6.57
2022-12-15T09:06:58.718Z,7.20
2022-12-15T09:09:27.146Z,5.27
2022-12-15T09:11:55.685Z,5.03
2022-12-15T09:14:29.064Z,5.97
2022-12-15T09:16:58.230Z,4.87
2022-12-15T09:19:26.788Z,4.83
2022-12-15T09:21:56.626Z,5.27
2022-12-15T09:24:34.414Z,5.37
2022-12-15T09:27:03.923Z,5.60
2022-12-15T09:29:32.760Z,6.57
2022-12-15T09:32:02.725Z,6.40
2022-12-15T09:34:31.141Z,6.97
2022-12-15T09:36:59.725Z,7.00
2022-12-15T09:39:28.266Z,5.80
2022-12-15T09:41:59.824Z,7.40
2022-12-15T09:44:30.260Z,8.80
2022-12-15T09:47:12.269Z,9.23
2022-12-15T09:49:59.236Z,7.33
2022-12-15T09:52:48.771Z,7.63
2022-12-15T09:55:24.981Z,7.43
2022-12-15T09:58:10.768Z,7.13
2022-12-15T10:00:55.687Z,6.63
2022-12-15T10:03:47.120Z,5.97
2022-12-15T10:06:21.770Z,6.50
2022-12-15T10:08:57.052Z,7.40
2022-12-15T10:11:43.861Z,6.63
2022-12-15T10:14:33.329Z,7.87
2022-12-15T10:17:07.645Z,8.93
2022-12-15T10:19:57.517Z,8.73
2022-12-15T10:22:32.557Z,8.17
2022-12-15T10:25:29.450Z,8.77
2022-12-15T10:28:27.729Z,7.93
2022-12-15T10:31:02.541Z,6.97
2022-12-15T10:33:35.453Z,8.53
2022-12-15T10:36:11.869Z,9.40
2022-12-15T10:38:50.481Z,8.67
2022-12-15T10:41:22.929Z,8.10
2022-12-15T10:43:52.283Z,7.70
2022-12-15T10:46:26.112Z,8.97
2022-12-15T10:49:08.151Z,9.07
2022-12-15T10:51:42.853Z,8.93
2022-12-15T10:54:14.909Z,7.73
2022-12-15T10:56:58.208Z,9.13
2022-12-15T10:59:32.587Z,7.67
2022-12-15T11:02:26.159Z,8.17
2022-12-15T11:05:16.113Z,9.30
2022-12-15T11:07:55.199Z,9.00
2022-12-15T11:10:28.673Z,7.03
2022-12-15T11:13:11.973Z,7.23
2022-12-15T11:18:50.089Z,7.97
2022-12-15T11:21:23.232Z,7.53
2022-12-15T11:24:19.616Z,9.53
2022-12-15T11:26:59.159Z,7.80
2022-12-15T11:29:52.003Z,7.67
2022-12-15T11:32:23.387Z,8.73
2022-12-15T11:34:51.846Z,7.83
2022-12-15T11:37:42.166Z,7.67
2022-12-15T11:40:41.380Z,8.77
2022-12-15T11:43:18.833Z,9.10
2022-12-15T11:46:02.378Z,10.80
2022-12-15T11:49:12.341Z,8.60
2022-12-15T11:51:43.779Z,8.50
2022-12-15T11:54:39.238Z,9.83
2022-12-15T11:57:19.999Z,8.93
2022-12-15T11:59:58.042Z,8.70
2022-12-15T12:02:53.456Z,9.60
2022-12-15T12:05:43.343Z,10.73
2022-12-15T12:08:31.487Z,9.47
2022-12-15T12:11:16.042Z,8.93
2022-12-15T12:14:09.681Z,9.27
2022-12-15T12:16:56.221Z,8.70
2022-12-15T12:19:50.836Z,10.87
2022-12-15T12:22:25.247Z,11.10
2022-12-15T12:25:02.090Z,9.17
2022-12-15T12:27:48.723Z,8.30
2022-12-15T12:30:23.197Z,9.07
2022-12-15T12:33:19.328Z,9.70
2022-12-15T12:35:51.587Z,10.83
2022-12-15T12:38:25.076Z,9.13
2022-12-15T12:41:03.659Z,9.97
2022-12-15T12:44:02.595Z,9.67
2022-12-15T12:46:36.264Z,9.53
2022-12-15T12:49:27.365Z,9.17
2022-12-15T12:51:57.865Z,9.23
2022-12-15T12:54:37.093Z,10.60
2022-12-15T12:57:14.564Z,10.43
2022-12-15T12:59:48.988Z,9.93
2022-12-15T13:02:26.168Z,9.83
2022-12-15T13:05:06.596Z,10.90
2022-12-15T13:07:40.655Z,10.00
2022-12-15T13:10:08.981Z,9.17
2022-12-15T13:12:53.947Z,10.70
2022-12-15T13:15:31.619Z,11.87
2022-12-15T13:18:16.325Z,12.23
2022-12-15T13:20:50.585Z,10.47
2022-12-15T13:23:22.388Z,9.90
2022-12-15T13:25:56.852Z,11.60
2022-12-15T13:28:28.054Z,15.27
2022-12-15T13:31:19.105Z,12.17
2022-12-15T13:33:52.046Z,8.90
2022-12-15T13:36:42.526Z,8.77
2022-12-15T13:39:17.016Z,8.70
2022-12-15T13:44:52.077Z,8.50
2022-12-15T13:47:30.227Z,9.07
2022-12-15T13:50:02.891Z,7.97
2022-12-15T13:53:16.599Z,10.90
2022-12-15T13:55:34.450Z,8.80
2022-12-15T13:58:14.110Z,7.83
2022-12-15T14:00:55.597Z,9.17
2022-12-15T14:03:24.328Z,9.50
2022-12-15T14:05:54.080Z,8.50
2022-12-15T14:08:23.654Z,8.73
2022-12-15T14:10:57.083Z,9.13
2022-12-15T14:13:34.839Z,9.17
2022-12-15T14:16:18.255Z,9.00
2022-12-15T14:18:47.018Z,8.57
2022-12-15T14:21:23.754Z,8.33
2022-12-15T14:24:28.459Z,8.20
2022-12-15T14:26:41.762Z,10.03
2022-12-15T14:29:10.209Z,9.40
2022-12-15T14:31:39.364Z,8.97
2022-12-15T14:34:11.307Z,10.90
2022-12-15T14:36:40.503Z,9.50
2022-12-15T14:39:17.882Z,11.43
2022-12-15T14:41:49.041Z,12.60
2022-12-15T14:44:38.381Z,11.27
2022-12-15T14:47:08.878Z,12.30
2022-12-15T14:49:40.700Z,13.00
2022-12-15T14:52:22.336Z,12.00
2022-12-15T14:54:58.867Z,13.43
2022-12-15T14:57:47.580Z,12.53
2022-12-15T15:00:33.142Z,12.27
2022-12-15T15:03:06.889Z,7.80
2022-12-15T15:05:52.241Z,13.23
2022-12-15T15:08:30.517Z,10.23
2022-12-15T15:11:17.877Z,10.87
2022-12-15T15:13:46.828Z,11.20
2022-12-15T15:16:19.312Z,10.73
2022-12-15T15:18:52.373Z,10.10
2022-12-15T15:21:38.934Z,9.73
2022-12-15T15:24:11.032Z,10.07
2022-12-15T15:26:40.437Z,10.57
2022-12-15T15:29:30.540Z,11.60
2022-12-15T15:32:18.206Z,13.17
2022-12-15T15:34:47.566Z,12.43
2022-12-15T15:37:25.417Z,13.20
2022-12-15T15:39:54.728Z,14.90
2022-12-15T15:42:29.133Z,13.90
2022-12-15T15:45:00.762Z,13.00
2022-12-15T15:47:29.159Z,13.13
2022-12-15T15:49:59.043Z,13.00
2022-12-15T15:52:28.757Z,11.57
2022-12-15T15:54:57.142Z,12.27
2022-12-15T15:57:25.743Z,11.27
2022-12-15T15:59:54.192Z,11.20
2022-12-15T16:02:22.837Z,10.73
2022-12-15T16:04:52.448Z,14.33
2022-12-15T16:07:25.205Z,11.83
2022-12-15T16:09:53.841Z,10.60
2022-12-15T16:12:35.095Z,13.20
2022-12-15T16:15:21.305Z,12.17
2022-12-15T16:17:50.038Z,13.57
2022-12-15T16:20:19.951Z,14.50
2022-12-15T16:22:57.896Z,14.67
2022-12-15T16:25:26.405Z,19.23
2022-12-15T16:27:55.610Z,19.00
2022-12-15T16:30:26.378Z,21.27
2022-12-15T16:32:55.764Z,22.90
2022-12-15T16:35:27.022Z,22.87
2022-12-15T16:37:55.687Z,20.63
2022-12-15T16:40:28.062Z,20.70
2022-12-15T16:43:01.364Z,20.60
2022-12-15T16:45:31.260Z,23.23
2022-12-15T16:48:00.004Z,23.63
2022-12-15T16:50:34.511Z,20.40
2022-12-15T16:53:04.853Z,19.27
2022-12-15T16:55:38.214Z,18.00
2022-12-15T16:58:11.561Z,21.90
2022-12-15T17:00:40.620Z,18.60
2022-12-15T17:03:17.317Z,17.40
2022-12-15T17:05:50.871Z,17.83
2022-12-15T17:08:25.804Z,19.07
2022-12-15T17:10:54.479Z,18.23
2022-12-15T17:13:42.067Z,14.27
2022-12-15T17:16:15.751Z,12.50
2022-12-15T17:18:44.723Z,10.70
2022-12-15T17:21:29.874Z,10.63
2022-12-15T17:24:12.441Z,9.93
2022-12-15T17:26:41.244Z,9.93
2022-12-15T17:29:17.294Z,9.33
2022-12-15T17:31:46.729Z,12.23
2022-12-15T17:34:34.770Z,12.37
2022-12-15T17:37:06.098Z,13.70
2022-12-15T17:39:36.783Z,18.67
2022-12-15T17:42:18.495Z,18.20
2022-12-15T17:44:48.346Z,15.53
2022-12-15T17:47:18.184Z,20.67
2022-12-15T17:49:48.868Z,17.60
2022-12-15T17:52:30.534Z,16.87
2022-12-15T17:54:59.713Z,18.00
2022-12-15T17:57:32.849Z,18.90
2022-12-15T18:00:02.366Z,15.70
2022-12-15T18:02:35.522Z,36.77
2022-12-15T18:05:05.158Z,18.37
2022-12-15T18:07:34.875Z,15.50
2022-12-15T18:10:03.671Z,12.77
2022-12-15T18:12:33.184Z,10.90
2022-12-15T18:15:01.853Z,13.63
2022-12-15T18:17:30.578Z,12.80
2022-12-15T18:19:59.228Z,11.87
2022-12-15T18:22:32.097Z,11.87
2022-12-15T18:25:03.524Z,15.93
2022-12-15T18:27:34.527Z,16.10
2022-12-15T18:30:05.913Z,15.40
2022-12-15T18:32:40.560Z,18.23
2022-12-15T18:35:20.517Z,19.20
2022-12-15T18:37:52.867Z,20.20
2022-12-15T18:40:24.166Z,22.87
2022-12-15T18:42:54.666Z,22.97
2022-12-15T18:45:27.934Z,20.27
2022-12-15T18:47:56.898Z,24.63
2022-12-15T18:50:26.718Z,21.03
2022-12-15T18:52:59.755Z,23.53
2022-12-15T18:55:30.774Z,20.77
2022-12-15T18:58:00.681Z,17.10
2022-12-15T19:00:30.751Z,19.87
2022-12-15T19:03:00.580Z,22.47
2022-12-15T19:05:29.457Z,20.30
2022-12-15T19:08:25.235Z,18.53
2022-12-15T19:10:56.662Z,22.93
2022-12-15T19:13:28.876Z,22.37
2022-12-15T19:15:58.701Z,24.80
2022-12-15T19:18:47.165Z,20.67
2022-12-15T19:21:43.646Z,20.23
2022-12-15T19:24:50.711Z,14.00
2022-12-15T19:27:27.408Z,18.80
2022-12-15T19:29:56.347Z,17.03
2022-12-15T19:32:25.274Z,13.67
2022-12-15T19:34:54.339Z,15.63
2022-12-15T19:37:30.733Z,42.20
2022-12-15T19:39:59.808Z,38.13
2022-12-15T19:42:33.740Z,17.63
2022-12-15T19:45:13.741Z,16.47
2022-12-15T19:47:42.401Z,16.50
2022-12-15T19:50:15.761Z,14.87
2022-12-15T19:52:45.268Z,18.77
2022-12-15T19:55:15.883Z,15.73
2022-12-15T19:57:44.764Z,17.47
2022-12-15T20:00:17.604Z,18.33
2022-12-15T20:02:46.167Z,22.13
2022-12-15T20:05:16.059Z,21.90
2022-12-15T20:07:46.124Z,23.07
2022-12-15T20:10:32.171Z,25.50
2022-12-15T20:13:02.213Z,25.13
2022-12-15T20:15:30.686Z,25.30
2022-12-15T20:17:59.474Z,24.77
2022-12-15T20:20:28.586Z,22.23
2022-12-15T20:22:59.794Z,27.43
2022-12-15T20:25:30.909Z,21.17
2022-12-15T20:28:01.507Z,23.27
2022-12-15T20:30:33.584Z,25.47
2022-12-15T20:33:03.355Z,25.60
2022-12-15T20:35:33.571Z,22.93
2022-12-15T20:38:06.044Z,26.50
2022-12-15T20:40:35.558Z,24.00
2022-12-15T20:43:06.751Z,25.10
2022-12-15T20:45:35.233Z,26.70
2022-12-15T20:48:03.705Z,25.77
2022-12-15T20:50:37.687Z,23.60
2022-12-15T20:53:06.500Z,24.30
2022-12-15T20:55:35.336Z,27.23
2022-12-15T20:58:05.625Z,25.67
2022-12-15T21:00:34.157Z,21.07
2022-12-15T21:03:02.775Z,21.40
2022-12-15T21:05:32.308Z,24.10
2022-12-15T21:08:00.766Z,21.40
2022-12-15T21:10:29.226Z,23.70
2022-12-15T21:12:57.648Z,21.40
2022-12-15T21:15:26.703Z,20.00
2022-12-15T21:18:16.957Z,21.87
2022-12-15T21:20:44.206Z,21.00
2022-12-15T21:23:25.446Z,20.47
2022-12-15T21:25:53.955Z,24.00
2022-12-15T21:28:23.537Z,25.63
2022-12-15T21:30:52.897Z,27.30
2022-12-15T21:33:21.852Z,27.47
2022-12-15T21:35:50.381Z,28.40
2022-12-15T21:38:41.051Z,30.10
2022-12-15T21:41:13.323Z,30.43
2022-12-15T21:43:41.848Z,31.10
2022-12-15T21:46:14.780Z,39.80
2022-12-15T21:49:02.315Z,26.87
2022-12-15T21:51:35.295Z,51.23
2022-12-15T21:54:04.026Z,29.73
2022-12-15T21:56:32.423Z,30.40
2022-12-15T21:59:01.495Z,27.83
2022-12-15T22:01:30.757Z,28.03
2022-12-15T22:03:59.322Z,26.33
2022-12-15T22:06:30.000Z,25.23
2022-12-15T22:08:59.344Z,28.83
2022-12-15T22:11:29.342Z,26.07
2022-12-15T22:13:59.314Z,23.43
2022-12-15T22:16:27.916Z,24.83
2022-12-15T22:18:57.607Z,24.17
2022-12-15T22:21:26.000Z,25.73
2022-12-15T22:23:55.701Z,26.17
2022-12-15T22:26:31.314Z,27.07
2022-12-15T22:29:00.872Z,32.50
2022-12-15T22:31:29.585Z,39.07
2022-12-15T22:33:58.094Z,32.90
2022-12-15T22:36:26.674Z,30.93
2022-12-15T22:38:55.280Z,31.33
2022-12-15T22:41:23.698Z,33.73
2022-12-15T22:43:53.810Z,30.23
2022-12-15T22:46:24.767Z,37.33
2022-12-15T22:48:53.170Z,29.67
2022-12-15T22:51:23.788Z,27.40
2022-12-15T22:53:52.277Z,26.93
2022-12-15T22:56:25.310Z,23.20
2022-12-15T22:59:00.083Z,22.60
2022-12-15T23:01:28.707Z,23.80
2022-12-15T23:03:57.179Z,26.30
2022-12-15T23:06:27.563Z,26.17
2022-12-15T23:08:56.779Z,26.17
2022-12-15T23:11:37.931Z,21.27
2022-12-15T23:14:17.295Z,26.80
2022-12-15T23:16:46.036Z,23.67
2022-12-15T23:19:24.558Z,27.33
2022-12-15T23:21:52.949Z,106.80
2022-12-15T23:24:21.994Z,29.20
2022-12-15T23:26:50.388Z,25.10
2022-12-15T23:29:18.868Z,24.13
2022-12-15T23:31:47.697Z,23.53
2022-12-15T23:34:16.718Z,24.23
2022-12-15T23:36:45.057Z,24.50
2022-12-15T23:39:13.543Z,24.73
2022-12-15T23:41:41.895Z,23.53
2022-12-15T23:44:12.561Z,23.33
2022-12-15T23:46:41.076Z,24.37
2022-12-15T23:49:09.637Z,21.87
2022-12-15T23:51:38.014Z,23.37
2022-12-15T23:54:06.376Z,22.07
2022-12-15T23:56:34.684Z,20.43
2022-12-15T23:59:03.078Z,21.80
